Flugplatz Schwenningen am Neckar (EDTS)

Hier findest Du alle Informationen zum Flugplatz Schwenningen am Neckar (EDTS).

Informationen für Piloten zum Flugplatz Schwenningen am Neckar

Hier findest Du alle relevanten Informationen, die Du als Pilot benötigst, um Schwenningen am Neckar anzufliegen.

Flugplatz: Schwenningen am Neckar ICAO-Code: EDTS
Frequenz Turm: 122,850 Mhz GAFOR Gebiet: 62
Frequenz Ground: 122,850 Mhz Mogas: nein
Platzrunde: NW 3500 ft Landegebühr: -
Platzhöhe: 2.169 ft Sunrise: 04:18 Uhr UTC
Pisten: 05/23 - 631 m x 20 m, ASPH Sunset: 18:29 Uhr UTC

Mitglieder, die in Schwenningen am Neckar fliegen

Flugwetter am Flugplatz Schwenningen am Neckar

Die METAR Information stammen aus EDTD (10.85 km entfernt).

METAR Code:
2019/11/18 09:00
EDTD 180900Z 19004KT 140V260 CAV?O 15/M00 Q1020

Flugschulen am Flugplatz Schwenningen am Neckar

Am Flugplatz Schwenningen am Neckar gibt es leider keine Flugschule.

Benachbarte Flugplätze und Flugschulen

Es gibt 17 weitere Flugplätze in einem Umkreis von 50 km um den Flugplatz Schwenningen am Neckar.

Jetzt anmelden

Passwort vergessen

Umfrage Archiv

Wie häufig haltet Ihr die Halbkreisflugregel ein?

Eher häufig!
34.5 %
Immer!
32.4 %
Hin und wieder!
16.4 %
Nie!
9.2 %
Eher selten!
7.6 %
Stimmen: 238 | Diskussion
Anzeige: Roland Aircraft
Statistik Alle Mitglieder

Aktuell sind 34 Besucher online, davon 5 Mitglieder und 29 Gäste.


Mitglieder online:
aviatrix  Steffen_E  tty42  Manfred Szega  raller 

Anzeige: EasyVFR